Список аэропортов
Фактическая погода:

21 августа, 07:00
Температура: +19°C (+19.0*)
Ветер: юго-западный 2 м/с
Давление: *766 мм
неб. 120 м
Время (МСК)Темп. СВетерВлажностьДавлениеОблачностьОсадки
03:00+14ЮЗ, 1 м/с100%1022 гПас прояснениями
04:00+14Ю, 1 м/с100%1022 гПас прояснениями
05:00+15Ю, 1 м/с100%1022 гПас прояснениями
06:00+16Ю, 1 м/с99%1022 гПас прояснениями
07:00+19ЮЗ, 1 м/с97%1022 гПаоблачно
08:00+21ЮЗ, 1 м/с89%1022 гПамалооблачно
09:00+24ЮЗ, 2 м/с69%1022 гПаясно
10:00+26ЮЗ, 2 м/с63%1022 гПаясно
11:00+27З, 2 м/с59%1022 гПаясно
12:00+28З, 2 м/с53%1022 гПаясно
13:00+29СЗ, 2 м/с47%1021 гПаясно
14:00+30СЗ, 1 м/с45%1021 гПаясно
15:00+30СЗ, 1 м/с43%1021 гПаясно
16:00+29СЗ, 1 м/с43%1020 гПаясно
17:00+28СЗ, 1 м/с59%1021 гПаясно
18:00+25ЮЗ, 1 м/с76%1021 гПаясно
19:00+22Ю, 2 м/с77%1021 гПаясно
20:00+21ЮЗ, 2 м/с88%1021 гПаясно
21:00+19ЮЗ, 1 м/с95%1021 гПаясно
22:00+18ЮЗ, 1 м/с98%1022 гПаясно
23:00+17ЮЗ, 1 м/с99%1022 гПамалооблачно
22 августа
00:00+16ЮЗ, 1 м/с100%1022 гПас прояснениями
01:00+16ЮЗ, 1 м/с100%1022 гПас прояснениями
02:00+15ЮЗ, 1 м/с100%1023 гПаоблачно
03:00+14Ю, 1 м/с100%1023 гПаоблачно
04:00+13Ю, 1 м/с100%1023 гПас прояснениями
05:00+14Ю, 1 м/с100%1024 гПас прояснениями
06:00+16Штиль 99%1024 гПаоблачно
07:00+18В, 1 м/с96%1024 гПас прояснениями
08:00+21В, 1 м/с84%1024 гПаясно
09:00+25Штиль 67%1024 гПаясно
10:00+28Штиль 56%1024 гПаясно
11:00+30СВ, 1 м/с44%1024 гПаясно
12:00+32Штиль 33%1023 гПаясно
13:00+33С, 1 м/с29%1023 гПаясно
14:00+33С, 1 м/с27%1022 гПамалооблачно
15:00+32Штиль 27%1022 гПамалооблачно
16:00+32Ю, 1 м/с29%1022 гПамалооблачно
17:00+29ЮЗ, 1 м/с43%1022 гПамалооблачно
18:00+26Ю, 1 м/с67%1022 гПаясно
19:00+23Ю, 2 м/с82%1022 гПаясно
20:00+21Ю, 2 м/с87%1023 гПаясно
21:00+20Ю, 1 м/с92%1023 гПаясно
22:00+19ЮВ, 1 м/с98%1023 гПаясно
23:00+18Ю, 1 м/с97%1024 гПамалооблачно
23 августа
00:00+17ЮВ, 1 м/с97%1024 гПамалооблачно
01:00+17ЮВ, 1 м/с98%1024 гПамалооблачно
02:00+16ЮВ, 1 м/с99%1024 гПамалооблачно
03:00+15ЮВ, 1 м/с100%1024 гПас прояснениями